Time;durP1;ratioP1;P1;durP2;ratioP2;P2;SDS_P1;SDS_P2;PMS_P1;PMS_P2;Temp;Humidity;BMP_temperature;BMP_pressure;BME280_temperature;BME280_humidity;BME280_pressure;Samples;Min_cycle;Max_cycle;Signal;HPM_P1;HPM_P2
2023/12/16 00:00:46;;;;;;;0.00;0.00;;;6.10;100.00;;;;;;6205428;23;20024;-75
2023/12/16 00:03:13;;;;;;;0.00;0.00;;;6.10;100.00;;;;;;6205983;23;20028;-75
2023/12/16 00:05:40;;;;;;;0.00;0.00;;;6.10;100.00;;;;;;6205683;23;20020;-75
2023/12/16 00:08:07;;;;;;;0.00;0.00;;;6.10;100.00;;;;;;6206346;23;20645;-75
2023/12/16 00:10:34;;;;;;;0.00;0.00;;;6.10;100.00;;;;;;6204883;23;20021;-75
2023/12/16 00:13:01;;;;;;;0.00;0.00;;;6.10;100.00;;;;;;6205135;23;20021;-75
2023/12/16 00:15:29;;;;;;;0.70;0.70;;;6.10;100.00;;;;;;6205255;23;20127;-75
2023/12/16 00:17:56;;;;;;;0.00;0.00;;;6.10;100.00;;;;;;6205122;23;20435;-75
2023/12/16 00:20:23;;;;;;;0.00;0.00;;;6.10;100.00;;;;;;6204605;23;20633;-75
2023/12/16 00:22:50;;;;;;;0.00;0.00;;;6.20;100.00;;;;;;6204881;23;20083;-75
2023/12/16 00:25:17;;;;;;;0.00;0.00;;;6.20;100.00;;;;;;6205272;23;20055;-74
2023/12/16 00:27:45;;;;;;;0.00;0.00;;;6.20;100.00;;;;;;6177707;23;20024;-74
2023/12/16 00:30:12;;;;;;;0.00;0.00;;;6.20;100.00;;;;;;6204688;23;20028;-75
2023/12/16 00:32:39;;;;;;;0.00;0.00;;;6.20;100.00;;;;;;6178853;23;20038;-75
2023/12/16 00:35:07;;;;;;;0.00;0.00;;;6.20;100.00;;;;;;6205241;23;20680;-75
2023/12/16 00:37:35;;;;;;;0.00;0.00;;;6.20;100.00;;;;;;6204771;22;20036;-75
2023/12/16 00:40:04;;;;;;;0.00;0.00;;;6.20;100.00;;;;;;6265863;22;20646;-74
2023/12/16 00:42:31;;;;;;;0.00;0.00;;;6.10;100.00;;;;;;6266491;22;20042;-75
2023/12/16 00:44:57;;;;;;;0.00;0.00;;;6.10;100.00;;;;;;6266037;22;20677;-75
2023/12/16 00:47:25;;;;;;;0.00;0.00;;;6.10;100.00;;;;;;6265094;22;20095;-74
2023/12/16 00:49:52;;;;;;;0.00;0.00;;;6.10;100.00;;;;;;6266309;22;20020;-75
2023/12/16 00:52:19;;;;;;;0.00;0.00;;;6.10;100.00;;;;;;6265585;22;20436;-75
2023/12/16 00:54:47;;;;;;;0.00;0.00;;;6.10;100.00;;;;;;6266724;22;20055;-75
2023/12/16 00:57:14;;;;;;;0.00;0.00;;;6.00;100.00;;;;;;6265202;22;20031;-74
2023/12/16 00:59:41;;;;;;;0.00;0.00;;;6.00;100.00;;;;;;6266526;22;20034;-75
2023/12/16 01:02:08;;;;;;;0.00;0.00;;;6.00;100.00;;;;;;6267242;22;20046;-75
2023/12/16 01:04:36;;;;;;;0.00;0.00;;;6.00;100.00;;;;;;6265102;22;20020;-75
2023/12/16 01:07:03;;;;;;;0.00;0.00;;;6.00;100.00;;;;;;6266253;22;20020;-75
2023/12/16 01:09:30;;;;;;;0.00;0.00;;;6.00;100.00;;;;;;6269468;22;20024;-65
2023/12/16 01:11:57;;;;;;;0.00;0.00;;;6.00;100.00;;;;;;6264745;22;20059;-65
2023/12/16 01:14:24;;;;;;;0.00;0.00;;;5.90;100.00;;;;;;6265069;22;20023;-65
2023/12/16 01:16:51;;;;;;;0.00;0.00;;;5.90;100.00;;;;;;6265376;22;20020;-65
2023/12/16 01:19:18;;;;;;;0.00;0.00;;;5.90;100.00;;;;;;6266956;22;20019;-65
2023/12/16 01:21:45;;;;;;;0.00;0.00;;;5.90;100.00;;;;;;6266655;22;20015;-65
2023/12/16 01:24:13;;;;;;;0.00;0.00;;;5.90;100.00;;;;;;6265786;22;20019;-65
2023/12/16 01:26:39;;;;;;;0.00;0.00;;;5.80;100.00;;;;;;6265624;22;20471;-64
2023/12/16 01:29:06;;;;;;;0.00;0.00;;;5.80;100.00;;;;;;6265897;22;20039;-64
2023/12/16 01:31:33;;;;;;;0.00;0.00;;;5.80;100.00;;;;;;6265891;22;20019;-64
2023/12/16 01:34:00;;;;;;;0.00;0.00;;;5.80;100.00;;;;;;6265327;22;20023;-65
2023/12/16 01:36:27;;;;;;;0.00;0.00;;;5.80;100.00;;;;;;6267433;22;20198;-65
2023/12/16 01:38:54;;;;;;;0.00;0.00;;;5.80;100.00;;;;;;6240940;22;20093;-65
2023/12/16 01:41:21;;;;;;;0.00;0.00;;;5.80;100.00;;;;;;6268113;22;20028;-65
2023/12/16 01:43:48;;;;;;;0.00;0.00;;;5.80;100.00;;;;;;6268254;22;20023;-65
2023/12/16 01:46:16;;;;;;;0.00;0.00;;;5.80;100.00;;;;;;6268240;22;20024;-65
2023/12/16 01:48:43;;;;;;;0.00;0.00;;;5.80;100.00;;;;;;6267722;22;20024;-65
2023/12/16 01:51:10;;;;;;;0.00;0.00;;;5.80;100.00;;;;;;6268101;22;20081;-65
2023/12/16 01:53:38;;;;;;;0.00;0.00;;;5.90;100.00;;;;;;6267718;22;20019;-65
2023/12/16 01:56:07;;;;;;;0.00;0.00;;;5.80;100.00;;;;;;6267459;22;20280;-65
2023/12/16 01:58:37;;;;;;;0.00;0.00;;;5.90;100.00;;;;;;6241240;22;20077;-65
2023/12/16 02:01:04;;;;;;;0.00;0.00;;;5.80;100.00;;;;;;6267907;22;20093;-64
2023/12/16 02:03:32;;;;;;;0.00;0.00;;;5.90;100.00;;;;;;6240711;22;20043;-65
2023/12/16 02:05:59;;;;;;;0.00;0.00;;;5.80;100.00;;;;;;6267415;22;20364;-65
2023/12/16 02:08:26;;;;;;;0.00;0.00;;;5.90;100.00;;;;;;6267775;22;20023;-64
2023/12/16 02:10:53;;;;;;;0.00;0.00;;;5.90;100.00;;;;;;6267221;22;20116;-64
2023/12/16 02:13:23;;;;;;;0.00;0.00;;;5.90;100.00;;;;;;6266936;22;20129;-64
2023/12/16 02:15:50;;;;;;;0.00;0.00;;;5.90;100.00;;;;;;6267237;22;20502;-65
2023/12/16 02:18:17;;;;;;;0.00;0.00;;;5.90;100.00;;;;;;6267758;22;20023;-65
2023/12/16 02:20:46;;;;;;;0.00;0.00;;;5.90;100.00;;;;;;6267115;22;20062;-65
2023/12/16 02:23:19;;;;;;;0.00;0.00;;;5.90;100.00;;;;;;6267989;22;20031;-65
2023/12/16 02:25:46;;;;;;;0.40;0.40;;;5.90;100.00;;;;;;6267467;22;20399;-65
2023/12/16 02:28:13;;;;;;;0.00;0.00;;;5.90;100.00;;;;;;6267299;22;20039;-64
2023/12/16 02:30:40;;;;;;;0.00;0.00;;;5.90;100.00;;;;;;6267042;22;20490;-65
2023/12/16 02:33:07;;;;;;;0.00;0.00;;;5.90;100.00;;;;;;6240548;22;20046;-64
2023/12/16 02:35:34;;;;;;;0.00;0.00;;;5.90;100.00;;;;;;6266900;22;20089;-65
2023/12/16 02:38:01;;;;;;;0.00;0.00;;;5.90;100.00;;;;;;6267405;22;20403;-65
2023/12/16 02:40:28;;;;;;;0.00;0.00;;;5.90;100.00;;;;;;6240108;22;20028;-65
2023/12/16 02:42:55;;;;;;;0.00;0.00;;;5.90;100.00;;;;;;6266962;22;20340;-65
2023/12/16 02:45:24;;;;;;;0.00;0.00;;;5.90;100.00;;;;;;6266276;22;20460;-65
2023/12/16 02:47:51;;;;;;;0.00;0.00;;;5.90;100.00;;;;;;6267095;22;20468;-64
2023/12/16 02:50:18;;;;;;;0.00;0.00;;;5.90;100.00;;;;;;6240307;22;20636;-64
2023/12/16 02:52:45;;;;;;;0.00;0.00;;;5.90;100.00;;;;;;6266968;22;20015;-65
2023/12/16 02:55:12;;;;;;;0.00;0.00;;;5.90;100.00;;;;;;6240825;22;20130;-65
2023/12/16 02:57:39;;;;;;;0.00;0.00;;;5.90;100.00;;;;;;6267386;22;20455;-65
2023/12/16 03:00:07;;;;;;;0.00;0.00;;;5.90;100.00;;;;;;6240142;22;20399;-65
2023/12/16 03:02:34;;;;;;;0.00;0.00;;;5.90;100.00;;;;;;6267540;22;20027;-65
2023/12/16 03:05:01;;;;;;;0.00;0.00;;;5.90;100.00;;;;;;6267392;22;20023;-65
2023/12/16 03:07:28;;;;;;;0.00;0.00;;;5.90;100.00;;;;;;6239926;22;20051;-65
2023/12/16 03:09:55;;;;;;;0.00;0.00;;;5.80;100.00;;;;;;6239860;22;20070;-65
2023/12/16 03:12:24;;;;;;;0.00;0.00;;;5.80;100.00;;;;;;6266224;22;20027;-65
2023/12/16 03:14:51;;;;;;;0.00;0.00;;;5.80;100.00;;;;;;6239536;22;20027;-65
2023/12/16 03:17:18;;;;;;;0.00;0.00;;;5.80;100.00;;;;;;6265823;22;20098;-65
2023/12/16 03:19:45;;;;;;;0.00;0.00;;;5.70;100.00;;;;;;6267050;22;20020;-65
2023/12/16 03:22:12;;;;;;;0.00;0.00;;;5.70;100.00;;;;;;6239910;22;20019;-65
2023/12/16 03:24:39;;;;;;;0.00;0.00;;;5.70;100.00;;;;;;6265932;22;20027;-64
2023/12/16 03:27:06;;;;;;;0.00;0.00;;;5.70;100.00;;;;;;6266782;22;20020;-64
2023/12/16 03:29:33;;;;;;;0.00;0.00;;;5.60;100.00;;;;;;6266469;22;20026;-65
2023/12/16 03:31:59;;;;;;;0.00;0.00;;;5.60;100.00;;;;;;6239579;22;20081;-65
2023/12/16 03:34:26;;;;;;;0.00;0.00;;;5.60;100.00;;;;;;6266016;22;20085;-64
2023/12/16 03:36:53;;;;;;;0.00;0.00;;;5.60;100.00;;;;;;6266530;22;20034;-65
2023/12/16 03:39:20;;;;;;;0.00;0.00;;;5.50;100.00;;;;;;6265787;22;20387;-64
2023/12/16 03:41:47;;;;;;;0.08;0.08;;;5.50;100.00;;;;;;6266033;22;20035;-64
2023/12/16 03:44:14;;;;;;;0.00;0.00;;;5.40;100.00;;;;;;6239169;22;20073;-64
2023/12/16 03:46:41;;;;;;;0.00;0.00;;;5.30;100.00;;;;;;6265861;22;20586;-65
2023/12/16 03:49:08;;;;;;;0.00;0.00;;;5.30;100.00;;;;;;6238940;22;20024;-64
2023/12/16 03:51:35;;;;;;;0.00;0.00;;;5.20;100.00;;;;;;6238960;22;20038;-64
2023/12/16 03:54:01;;;;;;;0.00;0.00;;;5.10;100.00;;;;;;6266782;22;20102;-65
2023/12/16 03:56:28;;;;;;;0.00;0.00;;;5.10;100.00;;;;;;6265864;22;20153;-64
2023/12/16 03:58:55;;;;;;;0.00;0.00;;;5.00;100.00;;;;;;6238991;22;20645;-64
2023/12/16 04:01:23;;;;;;;0.00;0.00;;;5.00;100.00;;;;;;6265398;22;20098;-64
2023/12/16 04:03:50;;;;;;;0.00;0.00;;;4.90;100.00;;;;;;6264868;22;20024;-65
2023/12/16 04:06:17;;;;;;;0.00;0.00;;;4.80;100.00;;;;;;6238683;22;20027;-65
2023/12/16 04:08:44;;;;;;;0.00;0.00;;;4.80;100.00;;;;;;6265206;22;20024;-64
2023/12/16 04:11:11;;;;;;;0.00;0.00;;;4.80;100.00;;;;;;6264613;22;20375;-65
2023/12/16 04:13:37;;;;;;;0.00;0.00;;;4.80;100.00;;;;;;6238122;22;20028;-64
2023/12/16 04:16:05;;;;;;;0.00;0.00;;;4.70;100.00;;;;;;6238888;22;20027;-65
2023/12/16 04:18:32;;;;;;;0.00;0.00;;;4.70;100.00;;;;;;6238941;22;20055;-64
2023/12/16 04:21:01;;;;;;;0.15;0.15;;;4.70;100.00;;;;;;6264943;22;20081;-65
2023/12/16 04:23:28;;;;;;;0.00;0.00;;;4.70;100.00;;;;;;6239123;22;20775;-64
2023/12/16 04:25:55;;;;;;;0.00;0.00;;;4.70;100.00;;;;;;6265285;22;20019;-64
2023/12/16 04:28:22;;;;;;;0.00;0.00;;;4.60;100.00;;;;;;6264710;22;20077;-65
2023/12/16 04:30:49;;;;;;;0.00;0.00;;;4.60;100.00;;;;;;6265149;22;20024;-64
2023/12/16 04:33:16;;;;;;;0.00;0.00;;;4.60;100.00;;;;;;6265263;22;20019;-65
2023/12/16 04:35:43;;;;;;;0.00;0.00;;;4.60;100.00;;;;;;6264356;22;20028;-65
2023/12/16 04:38:10;;;;;;;0.00;0.00;;;4.60;100.00;;;;;;6265636;22;20028;-64
2023/12/16 04:40:37;;;;;;;0.00;0.00;;;4.60;100.00;;;;;;6238996;22;20062;-65
2023/12/16 04:43:03;;;;;;;0.00;0.00;;;4.60;100.00;;;;;;6265620;22;20540;-65
2023/12/16 04:45:31;;;;;;;0.00;0.00;;;4.50;100.00;;;;;;6265669;22;20019;-64
2023/12/16 04:47:57;;;;;;;0.00;0.00;;;4.50;100.00;;;;;;6239551;22;20131;-65
2023/12/16 04:50:24;;;;;;;0.00;0.00;;;4.50;100.00;;;;;;6265807;22;20024;-65
2023/12/16 04:52:51;;;;;;;0.00;0.00;;;4.40;100.00;;;;;;6264938;22;20015;-65
2023/12/16 04:55:18;;;;;;;0.00;0.00;;;4.40;100.00;;;;;;6265132;22;20953;-65
2023/12/16 04:57:45;;;;;;;0.00;0.00;;;4.30;100.00;;;;;;6265465;22;20044;-65
2023/12/16 05:00:13;;;;;;;0.00;0.00;;;4.30;100.00;;;;;;6238410;22;20127;-65
2023/12/16 05:02:40;;;;;;;0.00;0.00;;;4.40;100.00;;;;;;6238026;22;20023;-65
2023/12/16 05:05:08;;;;;;;0.00;0.00;;;4.40;100.00;;;;;;6265259;22;20062;-65
2023/12/16 05:07:36;;;;;;;0.00;0.00;;;4.40;100.00;;;;;;6264714;22;20026;-65
2023/12/16 05:10:04;;;;;;;0.00;0.00;;;4.40;100.00;;;;;;6266373;22;20027;-64
2023/12/16 05:12:30;;;;;;;0.00;0.00;;;4.40;100.00;;;;;;6267133;22;20020;-64
2023/12/16 05:15:05;;;;;;;0.00;0.00;;;4.50;100.00;;;;;;6267200;22;20077;-65
2023/12/16 05:17:32;;;;;;;0.00;0.00;;;4.50;100.00;;;;;;6266909;22;20086;-65
2023/12/16 05:19:59;;;;;;;0.00;0.00;;;4.50;100.00;;;;;;6267980;22;20084;-65
2023/12/16 05:22:26;;;;;;;0.00;0.00;;;4.50;100.00;;;;;;6267556;22;20125;-65
2023/12/16 05:24:53;;;;;;;0.00;0.00;;;4.50;100.00;;;;;;6267215;22;20106;-65
2023/12/16 05:27:20;;;;;;;0.00;0.00;;;4.50;100.00;;;;;;6266570;22;20026;-65
2023/12/16 05:29:47;;;;;;;0.00;0.00;;;4.40;100.00;;;;;;6267429;22;20024;-65
2023/12/16 05:32:14;;;;;;;0.00;0.00;;;4.40;100.00;;;;;;6239919;22;20024;-65
2023/12/16 05:34:40;;;;;;;0.00;0.00;;;4.40;100.00;;;;;;6267507;22;20032;-65
2023/12/16 05:37:07;;;;;;;0.00;0.00;;;4.40;100.00;;;;;;6240811;22;20102;-65
2023/12/16 05:39:34;;;;;;;0.00;0.00;;;4.40;100.00;;;;;;6265964;22;20026;-65
2023/12/16 05:42:01;;;;;;;0.00;0.00;;;4.30;100.00;;;;;;6240224;22;20077;-65
2023/12/16 05:44:28;;;;;;;0.00;0.00;;;4.30;100.00;;;;;;6267059;22;20032;-65
2023/12/16 05:46:55;;;;;;;0.00;0.00;;;4.30;100.00;;;;;;6239432;22;20047;-65
2023/12/16 05:49:22;;;;;;;0.00;0.00;;;4.30;100.00;;;;;;6267236;22;20109;-65
2023/12/16 05:51:49;;;;;;;0.00;0.00;;;4.20;100.00;;;;;;6268047;22;20113;-65
2023/12/16 05:54:16;;;;;;;0.00;0.00;;;4.20;100.00;;;;;;6267882;22;20024;-65
2023/12/16 05:56:43;;;;;;;0.00;0.00;;;4.20;100.00;;;;;;6240034;22;20105;-65
2023/12/16 05:59:10;;;;;;;0.00;0.00;;;4.20;100.00;;;;;;6239912;22;20024;-65
2023/12/16 06:01:37;;;;;;;0.00;0.00;;;4.20;100.00;;;;;;6240106;22;20104;-65
2023/12/16 06:04:04;;;;;;;0.00;0.00;;;4.10;100.00;;;;;;6239790;22;20061;-64
2023/12/16 06:06:31;;;;;;;0.00;0.00;;;4.10;100.00;;;;;;6267722;22;20628;-65
2023/12/16 06:08:58;;;;;;;0.00;0.00;;;4.10;100.00;;;;;;6267394;22;20089;-65
2023/12/16 06:11:25;;;;;;;0.00;0.00;;;4.10;100.00;;;;;;6266890;22;20086;-64
2023/12/16 06:13:52;;;;;;;0.00;0.00;;;4.10;100.00;;;;;;6266230;22;20635;-64
2023/12/16 06:16:19;;;;;;;0.00;0.00;;;4.10;100.00;;;;;;6240388;22;20024;-65
2023/12/16 06:18:48;;;;;;;0.00;0.00;;;4.10;100.00;;;;;;6266508;22;20024;-65
2023/12/16 06:21:15;;;;;;;0.00;0.00;;;4.10;100.00;;;;;;6265714;22;20078;-64
2023/12/16 06:23:42;;;;;;;0.00;0.00;;;4.10;100.00;;;;;;6239876;22;20035;-64
2023/12/16 06:26:09;;;;;;;0.00;0.00;;;4.10;100.00;;;;;;6266879;22;20031;-65
2023/12/16 06:28:36;;;;;;;0.00;0.00;;;4.10;100.00;;;;;;6239578;22;20020;-64
2023/12/16 06:31:03;;;;;;;0.00;0.00;;;4.00;100.00;;;;;;6267035;22;20062;-65
2023/12/16 06:33:31;;;;;;;0.00;0.00;;;4.00;100.00;;;;;;6266678;22;20099;-65
2023/12/16 06:35:58;;;;;;;0.00;0.00;;;4.00;100.00;;;;;;6265407;22;20603;-65
2023/12/16 06:38:24;;;;;;;0.00;0.00;;;4.00;100.00;;;;;;6265096;22;20081;-65
2023/12/16 06:40:51;;;;;;;0.00;0.00;;;4.10;100.00;;;;;;6239333;22;20634;-65
2023/12/16 06:43:18;;;;;;;0.00;0.00;;;4.10;100.00;;;;;;6265718;22;20027;-64
2023/12/16 06:45:45;;;;;;;0.00;0.00;;;4.10;100.00;;;;;;6265783;22;20111;-65
2023/12/16 06:48:12;;;;;;;0.00;0.00;;;4.10;100.00;;;;;;6266160;22;20129;-64
2023/12/16 06:50:39;;;;;;;0.00;0.00;;;4.20;100.00;;;;;;6265109;22;20073;-64
2023/12/16 06:53:07;;;;;;;0.00;0.00;;;4.10;100.00;;;;;;6264093;22;20019;-65
2023/12/16 06:55:33;;;;;;;0.00;0.00;;;4.10;100.00;;;;;;6264840;22;20605;-64
2023/12/16 06:58:00;;;;;;;0.00;0.00;;;4.20;100.00;;;;;;6238771;22;20625;-64
2023/12/16 07:00:27;;;;;;;0.00;0.00;;;4.20;100.00;;;;;;6238321;22;20375;-64
2023/12/16 07:02:54;;;;;;;0.00;0.00;;;4.10;100.00;;;;;;6265832;22;20031;-64
2023/12/16 07:05:21;;;;;;;0.00;0.00;;;4.20;100.00;;;;;;6265918;22;20085;-64
2023/12/16 07:07:49;;;;;;;0.00;0.00;;;4.20;100.00;;;;;;6237163;22;20063;-65
2023/12/16 07:10:16;;;;;;;0.00;0.00;;;4.20;100.00;;;;;;6265810;22;20023;-64
2023/12/16 07:12:43;;;;;;;0.00;0.00;;;4.20;100.00;;;;;;6264879;22;20114;-64
2023/12/16 07:15:10;;;;;;;0.00;0.00;;;4.30;100.00;;;;;;6237681;22;20023;-64
2023/12/16 07:17:38;;;;;;;0.00;0.00;;;4.30;100.00;;;;;;6237940;22;20023;-64
2023/12/16 07:20:08;;;;;;;0.00;0.00;;;4.30;100.00;;;;;;6263891;22;20370;-64
2023/12/16 07:22:34;;;;;;;0.00;0.00;;;4.30;100.00;;;;;;6264831;22;20070;-64
2023/12/16 07:25:01;;;;;;;0.00;0.00;;;4.30;100.00;;;;;;6265232;22;20033;-64
2023/12/16 07:27:30;;;;;;;1.30;0.85;;;4.40;100.00;;;;;;6265253;22;20024;-64
2023/12/16 07:29:57;;;;;;;0.00;0.00;;;4.40;100.00;;;;;;6264829;22;20032;-64
2023/12/16 07:32:24;;;;;;;0.00;0.00;;;4.50;100.00;;;;;;6265396;22;20085;-64
2023/12/16 07:34:51;;;;;;;0.00;0.00;;;4.50;100.00;;;;;;6239197;22;20019;-65
2023/12/16 07:37:18;;;;;;;0.00;0.00;;;4.50;100.00;;;;;;6239789;22;20031;-65
2023/12/16 07:39:46;;;;;;;0.00;0.00;;;4.60;100.00;;;;;;6265703;22;20352;-65
2023/12/16 07:42:14;;;;;;;0.00;0.00;;;4.60;100.00;;;;;;6265681;22;20047;-65
2023/12/16 07:44:40;;;;;;;0.00;0.00;;;4.70;100.00;;;;;;6265211;22;20027;-65
2023/12/16 07:47:07;;;;;;;4.68;1.17;;;4.80;100.00;;;;;;6265019;22;20027;-64
2023/12/16 07:49:34;;;;;;;0.00;0.00;;;4.80;100.00;;;;;;6264808;22;20089;-64
2023/12/16 07:52:01;;;;;;;0.00;0.00;;;4.80;100.00;;;;;;6265059;22;20043;-73
2023/12/16 07:54:28;;;;;;;0.00;0.00;;;4.90;100.00;;;;;;6238810;22;20085;-64
2023/12/16 07:56:55;;;;;;;0.00;0.00;;;4.90;100.00;;;;;;6265379;22;20043;-65
2023/12/16 07:59:22;;;;;;;0.00;0.00;;;4.90;100.00;;;;;;6240039;22;20023;-65
2023/12/16 08:01:50;;;;;;;0.00;0.00;;;4.90;100.00;;;;;;6238885;22;20364;-64
2023/12/16 08:04:18;;;;;;;0.00;0.00;;;4.90;100.00;;;;;;6263836;22;20078;-64
2023/12/16 08:06:45;;;;;;;0.00;0.00;;;4.90;100.00;;;;;;6237723;22;20026;-65
2023/12/16 08:09:13;;;;;;;0.00;0.00;;;5.00;100.00;;;;;;6238659;22;20019;-64
2023/12/16 08:11:40;;;;;;;0.00;0.00;;;5.10;100.00;;;;;;6265325;22;20101;-63
2023/12/16 08:14:07;;;;;;;0.38;0.15;;;5.20;100.00;;;;;;6238671;22;20101;-63
2023/12/16 08:16:37;;;;;;;33.40;5.88;;;5.20;100.00;;;;;;6265913;22;20106;-64
2023/12/16 08:19:04;;;;;;;35.33;6.72;;;5.30;100.00;;;;;;6265455;22;20024;-65
2023/12/16 08:21:31;;;;;;;28.40;6.75;;;5.40;100.00;;;;;;6238710;22;20027;-65
2023/12/16 08:23:58;;;;;;;46.78;6.43;;;5.40;100.00;;;;;;6264931;22;20124;-65
2023/12/16 08:26:27;;;;;;;30.85;6.68;;;5.50;100.00;;;;;;6265375;22;20452;-65
2023/12/16 08:28:54;;;;;;;40.03;6.25;;;5.50;100.00;;;;;;6264779;22;20099;-65
2023/12/16 08:31:20;;;;;;;18.63;6.88;;;5.50;100.00;;;;;;6265748;22;20124;-66
2023/12/16 08:33:47;;;;;;;27.45;5.75;;;5.50;100.00;;;;;;6265591;22;20054;-66
2023/12/16 08:36:15;;;;;;;20.23;5.20;;;5.60;100.00;;;;;;6264993;22;20051;-65
2023/12/16 08:38:42;;;;;;;26.63;6.97;;;5.70;100.00;;;;;;6237695;22;20069;-66
2023/12/16 08:41:08;;;;;;;18.95;5.60;;;5.80;100.00;;;;;;6263440;22;20039;-64
2023/12/16 08:43:35;;;;;;;21.27;5.78;;;5.90;100.00;;;;;;6263260;22;20609;-65
2023/12/16 08:46:04;;;;;;;23.73;6.85;;;5.90;100.00;;;;;;6264743;22;20035;-65
2023/12/16 08:48:31;;;;;;;27.77;5.35;;;6.00;100.00;;;;;;6265051;22;20047;-64
2023/12/16 08:50:58;;;;;;;22.38;5.70;;;6.00;100.00;;;;;;6265046;22;20098;-63
2023/12/16 08:53:25;;;;;;;48.60;6.72;;;6.00;100.00;;;;;;6265059;22;20023;-63
2023/12/16 08:55:52;;;;;;;29.58;5.90;;;6.00;100.00;;;;;;6264588;22;20096;-65
2023/12/16 08:58:19;;;;;;;23.52;5.47;;;6.00;100.00;;;;;;6237230;22;20494;-63
2023/12/16 09:00:48;;;;;;;23.00;5.13;;;6.00;100.00;;;;;;6264315;22;20024;-64
2023/12/16 09:03:15;;;;;;;20.92;5.22;;;6.00;100.00;;;;;;6265628;22;20322;-63
2023/12/16 09:05:42;;;;;;;28.00;5.78;;;6.00;100.00;;;;;;6265767;22;20031;-64
2023/12/16 09:08:09;;;;;;;35.72;7.40;;;6.10;100.00;;;;;;6264834;22;20019;-64
2023/12/16 09:10:36;;;;;;;22.02;5.80;;;6.20;100.00;;;;;;6237300;22;20023;-64
2023/12/16 09:13:03;;;;;;;30.92;5.07;;;6.20;100.00;;;;;;6237668;22;20020;-66
2023/12/16 09:15:30;;;;;;;25.42;5.70;;;6.30;100.00;;;;;;6263291;22;20027;-64
2023/12/16 09:17:57;;;;;;;26.38;4.95;;;6.30;100.00;;;;;;6263127;22;20027;-64
2023/12/16 09:20:25;;;;;;;35.35;6.20;;;6.40;100.00;;;;;;6237377;22;20024;-64
2023/12/16 09:26:05;;;;;;;23.95;5.22;;;6.70;100.00;;;;;;6143567;23;20033;-64
2023/12/16 09:28:31;;;;;;;23.85;4.65;;;6.80;100.00;;;;;;6144245;23;20477;-64
2023/12/16 09:30:58;;;;;;;19.80;4.50;;;6.90;100.00;;;;;;6144107;23;20100;-64
2023/12/16 09:33:26;;;;;;;26.17;5.03;;;7.00;100.00;;;;;;6143828;23;20022;-64
2023/12/16 09:35:53;;;;;;;30.10;5.45;;;6.90;100.00;;;;;;6143928;23;21011;-64
2023/12/16 09:38:20;;;;;;;16.88;4.32;;;6.90;100.00;;;;;;6143297;23;20037;-64
2023/12/16 09:40:47;;;;;;;25.70;5.13;;;6.90;100.00;;;;;;6144871;23;20033;-64
2023/12/16 09:43:16;;;;;;;26.20;5.05;;;7.00;100.00;;;;;;6143190;23;20589;-64
2023/12/16 09:45:46;;;;;;;19.23;4.57;;;7.00;100.00;;;;;;6145289;23;20096;-73
2023/12/16 09:48:19;;;;;;;29.67;4.53;;;7.00;100.00;;;;;;6143522;23;20025;-73
2023/12/16 09:50:46;;;;;;;23.27;4.60;;;7.00;100.00;;;;;;6145217;23;20021;-72
2023/12/16 09:53:14;;;;;;;19.00;5.07;;;7.00;100.00;;;;;;6142896;23;20096;-71
2023/12/16 09:55:42;;;;;;;28.15;4.22;;;7.10;100.00;;;;;;6143083;23;20029;-73
2023/12/16 09:58:12;;;;;;;28.23;5.55;;;7.10;100.00;;;;;;6146031;23;20111;-73
2023/12/16 10:00:45;;;;;;;23.55;4.18;;;7.10;100.00;;;;;;6147232;23;20418;-72
2023/12/16 10:03:16;;;;;;;26.48;5.35;;;7.10;100.00;;;;;;6146682;23;20029;-72
2023/12/16 10:05:45;;;;;;;18.90;4.60;;;7.10;100.00;;;;;;6145945;23;20108;-72
2023/12/16 10:08:13;;;;;;;18.55;4.47;;;7.10;100.00;;;;;;6146129;23;20430;-71
2023/12/16 10:10:39;;;;;;;24.35;4.13;;;7.10;100.00;;;;;;6145260;23;20464;-73
2023/12/16 10:13:10;;;;;;;10.65;3.92;;;7.10;100.00;;;;;;6145569;23;20432;-73
2023/12/16 10:15:37;;;;;;;21.65;4.53;;;7.10;100.00;;;;;;6145596;23;20836;-73
2023/12/16 10:18:04;;;;;;;27.38;5.43;;;7.00;100.00;;;;;;6142692;23;20092;-73
2023/12/16 10:20:31;;;;;;;26.80;4.43;;;7.00;100.00;;;;;;6144387;23;20026;-73
2023/12/16 10:23:02;;;;;;;20.23;4.80;;;7.00;100.00;;;;;;6141140;23;20029;-73
2023/12/16 10:25:31;;;;;;;30.15;5.25;;;7.00;100.00;;;;;;6121306;23;20037;-73
2023/12/16 10:28:02;;;;;;;22.75;4.40;;;7.00;100.00;;;;;;6114494;23;20026;-73
2023/12/16 10:30:30;;;;;;;19.70;3.83;;;7.00;100.00;;;;;;6115797;23;20029;-73
2023/12/16 10:33:02;;;;;;;16.63;3.65;;;7.00;100.00;;;;;;6111725;23;20347;-73
2023/12/16 10:35:33;;;;;;;26.38;4.35;;;6.90;100.00;;;;;;6114921;23;20022;-73
2023/12/16 10:38:00;;;;;;;26.33;4.55;;;6.90;100.00;;;;;;6115397;23;20026;-72
2023/12/16 10:40:27;;;;;;;20.73;5.65;;;6.90;100.00;;;;;;6115817;23;20738;-73
2023/12/16 10:42:54;;;;;;;17.55;3.17;;;6.80;100.00;;;;;;6114985;23;20033;-73
2023/12/16 10:45:21;;;;;;;18.30;4.38;;;6.80;100.00;;;;;;6089776;23;20022;-73
2023/12/16 10:47:50;;;;;;;11.85;3.63;;;6.80;100.00;;;;;;6114123;23;20077;-73
2023/12/16 10:50:21;;;;;;;21.63;4.38;;;6.80;100.00;;;;;;6090642;23;20057;-73
2023/12/16 10:52:54;;;;;;;24.70;4.68;;;6.80;100.00;;;;;;6114804;23;20026;-73
2023/12/16 10:55:39;;;;;;;20.30;4.63;;;6.80;100.00;;;;;;6115369;23;20057;-72
2023/12/16 10:58:23;;;;;;;22.00;3.97;;;6.80;100.00;;;;;;6090978;23;20037;-73
2023/12/16 11:00:52;;;;;;;24.80;3.97;;;6.80;100.00;;;;;;6114493;23;20025;-72
2023/12/16 11:03:33;;;;;;;17.55;4.30;;;6.70;100.00;;;;;;6089349;23;20510;-73
2023/12/16 11:06:06;;;;;;;34.95;4.93;;;6.70;100.00;;;;;;6114548;23;20026;-72
2023/12/16 11:08:36;;;;;;;28.25;3.83;;;6.70;100.00;;;;;;6114954;23;20117;-72
2023/12/16 11:11:03;;;;;;;25.98;5.13;;;6.70;100.00;;;;;;6117238;23;20025;-73
2023/12/16 11:13:31;;;;;;;25.00;4.82;;;6.70;100.00;;;;;;6116554;23;20018;-74
2023/12/16 11:16:10;;;;;;;21.77;4.78;;;6.70;100.00;;;;;;6116330;23;20068;-73
2023/12/16 11:18:40;;;;;;;20.85;4.53;;;6.70;100.00;;;;;;6116173;23;20033;-73
2023/12/16 11:21:12;;;;;;;18.40;4.53;;;6.70;100.00;;;;;;6116071;23;20715;-73
2023/12/16 11:23:46;;;;;;;19.58;4.70;;;6.70;100.00;;;;;;6115874;23;20414;-73
2023/12/16 11:26:14;;;;;;;25.67;5.20;;;6.70;100.00;;;;;;6114328;23;20064;-74
2023/12/16 11:28:41;;;;;;;20.45;4.45;;;6.70;100.00;;;;;;6091070;23;20459;-74
2023/12/16 11:31:10;;;;;;;18.42;4.82;;;6.70;100.00;;;;;;6116210;23;20029;-73
2023/12/16 11:33:45;;;;;;;22.83;6.10;;;6.70;100.00;;;;;;6114661;23;20141;-73
2023/12/16 11:36:19;;;;;;;31.48;6.28;;;6.70;100.00;;;;;;6116576;23;20057;-73
2023/12/16 11:38:47;;;;;;;30.13;5.32;;;6.70;100.00;;;;;;6116490;23;20092;-74
2023/12/16 11:41:37;;;;;;;27.00;4.88;;;6.70;100.00;;;;;;6113968;23;20137;-73
2023/12/16 11:44:04;;;;;;;25.95;5.38;;;6.70;100.00;;;;;;6114121;23;20486;-73
2023/12/16 11:46:42;;;;;;;20.05;5.60;;;6.60;100.00;;;;;;6113815;23;20026;-73
2023/12/16 11:49:16;;;;;;;24.90;5.93;;;6.70;100.00;;;;;;6115783;23;20026;-74
2023/12/16 11:51:44;;;;;;;20.60;4.88;;;6.60;100.00;;;;;;6116970;23;20691;-73
2023/12/16 11:54:12;;;;;;;16.98;5.00;;;6.60;100.00;;;;;;6116491;23;20485;-73
2023/12/16 11:56:39;;;;;;;22.67;5.53;;;6.50;100.00;;;;;;6116570;23;20028;-73
2023/12/16 11:59:07;;;;;;;29.02;6.82;;;6.50;100.00;;;;;;6117230;23;20096;-73
2023/12/16 12:01:35;;;;;;;22.92;5.95;;;6.50;100.00;;;;;;6116034;23;20025;-74
2023/12/16 12:04:03;;;;;;;34.70;5.90;;;6.50;100.00;;;;;;6113660;23;20037;-74
2023/12/16 12:06:31;;;;;;;20.88;5.75;;;6.50;100.00;;;;;;6115974;23;20101;-73
2023/12/16 12:08:58;;;;;;;28.33;6.40;;;6.50;100.00;;;;;;6116322;23;20030;-73
2023/12/16 12:11:25;;;;;;;19.38;6.03;;;6.50;100.00;;;;;;6114062;23;20030;-74
2023/12/16 12:13:52;;;;;;;30.70;6.93;;;6.50;100.00;;;;;;6115890;23;20026;-73
2023/12/16 12:16:21;;;;;;;24.27;6.95;;;6.50;100.00;;;;;;6115679;23;20026;-74
2023/12/16 12:18:48;;;;;;;35.08;6.95;;;6.50;100.00;;;;;;6113954;23;20030;-74
2023/12/16 12:21:16;;;;;;;19.00;6.28;;;6.50;100.00;;;;;;6116093;23;20444;-74
2023/12/16 12:23:43;;;;;;;26.10;7.25;;;6.50;100.00;;;;;;6116255;23;20415;-74
2023/12/16 12:26:10;;;;;;;33.72;7.30;;;6.40;100.00;;;;;;6115734;23;20099;-74
2023/12/16 12:28:38;;;;;;;24.67;7.13;;;6.40;100.00;;;;;;6112850;23;20399;-74
2023/12/16 12:31:07;;;;;;;29.23;7.25;;;6.40;100.00;;;;;;6116581;23;20022;-74
2023/12/16 12:33:35;;;;;;;31.00;7.28;;;6.40;100.00;;;;;;6113928;23;20101;-74
2023/12/16 12:36:03;;;;;;;26.80;6.88;;;6.40;100.00;;;;;;6089670;23;20022;-74
2023/12/16 12:38:32;;;;;;;29.45;6.97;;;6.40;100.00;;;;;;6115841;23;20060;-74
2023/12/16 12:41:06;;;;;;;36.90;7.72;;;6.40;100.00;;;;;;6116394;23;20026;-74
2023/12/16 12:43:35;;;;;;;31.95;9.23;;;6.40;100.00;;;;;;6115213;23;20803;-73
2023/12/16 12:46:07;;;;;;;28.17;7.47;;;6.40;100.00;;;;;;6116008;23;20093;-74
2023/12/16 12:48:38;;;;;;;17.45;6.32;;;6.40;100.00;;;;;;6116471;23;20022;-73